Time;durP1;ratioP1;P1;durP2;ratioP2;P2;SDS_P1;SDS_P2;PMS_P1;PMS_P2;Temp;Humidity;BMP_temperature;BMP_pressure;BME280_temperature;BME280_humidity;BME280_pressure;Samples;Min_cycle;Max_cycle;Signal;HPM_P1;HPM_P2
2023/06/18 00:00:18;;;;;;;8.13;6.80;;;;;;;22.01;26.42;100919.50;5046991;28;20040;-77
2023/06/18 00:02:46;;;;;;;7.70;6.50;;;;;;;22.00;26.28;100920.56;5048955;28;20045;-77
2023/06/18 00:05:14;;;;;;;10.50;7.47;;;;;;;21.98;26.71;100919.91;5048016;28;20052;-76
2023/06/18 00:07:42;;;;;;;10.50;6.95;;;;;;;21.99;26.40;100923.56;5051689;28;20052;-77
2023/06/18 00:10:11;;;;;;;9.23;7.25;;;;;;;21.97;26.69;100912.59;5047721;28;20064;-78
2023/06/18 00:12:40;;;;;;;8.40;6.25;;;;;;;21.98;26.68;100928.25;5049104;28;20068;-77
2023/06/18 00:15:08;;;;;;;7.80;6.53;;;;;;;21.94;26.29;100924.16;5045711;28;20044;-76
2023/06/18 00:17:36;;;;;;;7.95;6.60;;;;;;;21.92;26.16;100925.47;5047429;28;20147;-77
2023/06/18 00:20:05;;;;;;;8.55;6.72;;;;;;;21.92;26.74;100922.66;5048959;28;20045;-77
2023/06/18 00:22:36;;;;;;;9.68;7.30;;;;;;;21.88;26.66;100925.81;5046877;28;20057;-77
2023/06/18 00:25:05;;;;;;;9.18;7.35;;;;;;;21.87;26.46;100921.31;5051449;28;20040;-77
2023/06/18 00:27:33;;;;;;;8.48;6.32;;;;;;;21.84;26.64;100916.19;5067560;28;20041;-78
2023/06/18 00:30:04;;;;;;;9.18;7.00;;;;;;;21.84;26.33;100918.09;5055756;28;20041;-76
2023/06/18 00:32:32;;;;;;;8.63;6.50;;;;;;;21.78;26.66;100914.19;5056320;28;20052;-76
2023/06/18 00:35:00;;;;;;;9.30;7.22;;;;;;;21.75;26.62;100906.28;5052933;28;20379;-78
2023/06/18 00:37:29;;;;;;;8.75;6.97;;;;;;;21.73;26.58;100913.09;5056007;28;20091;-77
2023/06/18 00:39:57;;;;;;;9.07;7.28;;;;;;;21.69;26.51;100909.84;5056238;28;20068;-78
2023/06/18 00:42:28;;;;;;;8.65;7.07;;;;;;;21.66;26.96;100901.94;5054841;28;20048;-77
2023/06/18 00:44:57;;;;;;;9.35;7.13;;;;;;;21.63;26.99;100899.56;5054289;28;20102;-77
2023/06/18 00:47:26;;;;;;;8.15;6.80;;;;;;;21.61;26.99;100903.59;5054857;28;20163;-75
2023/06/18 00:49:56;;;;;;;7.70;6.65;;;;;;;21.58;26.83;100898.47;5054416;28;20048;-79
2023/06/18 00:52:24;;;;;;;9.07;6.95;;;;;;;21.53;26.33;100888.78;5053931;28;20053;-76
2023/06/18 00:54:53;;;;;;;9.02;7.07;;;;;;;21.51;26.67;100895.66;5067000;28;20051;-77
2023/06/18 00:57:21;;;;;;;10.43;7.18;;;;;;;21.49;26.75;100890.28;5051193;28;20077;-77
2023/06/18 00:59:51;;;;;;;8.27;6.93;;;;;;;21.46;26.82;100893.47;5050963;28;20064;-76
2023/06/18 01:02:23;;;;;;;7.78;6.55;;;;;;;21.44;26.69;100891.94;5050672;28;20543;-76
2023/06/18 01:04:57;;;;;;;9.40;6.82;;;;;;;21.44;26.89;100894.72;5051388;28;20048;-77
2023/06/18 01:07:27;;;;;;;9.30;7.43;;;;;;;21.40;26.31;100893.44;5065953;28;20044;-77
2023/06/18 01:10:00;;;;;;;7.93;6.60;;;;;;;21.37;26.40;100888.25;5052276;28;20052;-77
2023/06/18 01:12:28;;;;;;;8.88;6.72;;;;;;;21.34;26.46;100888.69;5052296;28;20041;-77
2023/06/18 01:14:57;;;;;;;8.80;6.47;;;;;;;21.32;26.32;100890.81;5054706;28;20045;-76
2023/06/18 01:17:29;;;;;;;9.57;6.95;;;;;;;21.30;27.03;100898.50;5053681;28;20045;-78
2023/06/18 01:20:08;;;;;;;8.50;6.57;;;;;;;21.25;26.64;100896.31;5053113;28;20060;-77
2023/06/18 01:22:42;;;;;;;7.57;6.40;;;;;;;21.23;26.96;100903.13;5050787;28;20064;-77
2023/06/18 01:25:11;;;;;;;9.25;7.30;;;;;;;21.18;27.23;100894.53;5045271;28;20060;-75
2023/06/18 01:27:42;;;;;;;9.27;6.22;;;;;;;21.15;26.90;100898.56;5053101;28;20048;-77
2023/06/18 01:30:12;;;;;;;7.60;6.65;;;;;;;21.14;27.39;100896.84;5048321;28;20081;-77
2023/06/18 01:32:41;;;;;;;7.70;6.43;;;;;;;21.10;27.29;100895.56;5050035;28;20043;-76
2023/06/18 01:35:14;;;;;;;8.20;6.70;;;;;;;21.09;26.92;100885.47;5049182;28;20067;-76
2023/06/18 01:37:58;;;;;;;8.98;6.72;;;;;;;21.04;27.01;100888.84;5066994;28;20068;-76
2023/06/18 01:40:35;;;;;;;7.90;6.65;;;;;;;21.01;27.58;100889.28;5050804;28;20082;-77
2023/06/18 01:43:12;;;;;;;7.30;6.32;;;;;;;20.98;27.64;100897.16;5065609;28;20044;-77
2023/06/18 01:45:46;;;;;;;8.05;6.18;;;;;;;20.94;27.02;100884.72;5050355;28;20392;-76
2023/06/18 01:48:15;;;;;;;7.43;5.93;;;;;;;20.88;27.23;100885.50;5054301;28;20124;-77
2023/06/18 01:50:47;;;;;;;6.60;5.90;;;;;;;20.88;27.39;100882.72;5050913;28;20083;-76
2023/06/18 01:53:18;;;;;;;7.28;6.20;;;;;;;20.85;27.41;100885.94;5052855;28;20033;-76
2023/06/18 01:55:49;;;;;;;7.30;6.15;;;;;;;20.82;27.26;100880.75;5052575;28;20037;-77
2023/06/18 01:58:17;;;;;;;8.02;5.70;;;;;;;20.80;27.13;100885.66;5052990;28;20043;-76
2023/06/18 02:00:45;;;;;;;7.72;6.15;;;;;;;20.77;27.29;100882.25;5052002;28;20037;-77
2023/06/18 02:03:13;;;;;;;7.25;6.22;;;;;;;20.77;27.65;100878.59;5051832;28;20117;-76
2023/06/18 02:05:41;;;;;;;7.72;6.30;;;;;;;20.76;27.19;100879.66;5051662;28;20060;-76
2023/06/18 02:08:10;;;;;;;7.68;6.88;;;;;;;20.75;27.31;100881.56;5051250;28;20063;-76
2023/06/18 02:10:38;;;;;;;7.88;6.47;;;;;;;20.72;27.29;100878.31;5047224;28;20048;-76
2023/06/18 02:13:07;;;;;;;8.43;6.10;;;;;;;20.71;27.28;100876.59;5050997;28;20504;-77
2023/06/18 02:15:34;;;;;;;9.52;6.82;;;;;;;20.69;27.35;100875.97;5050890;28;20072;-75
2023/06/18 02:18:03;;;;;;;9.10;6.25;;;;;;;20.68;27.40;100874.22;5050455;28;20075;-76
2023/06/18 02:20:31;;;;;;;8.02;6.28;;;;;;;20.66;27.31;100879.13;5066272;28;20064;-76
2023/06/18 02:23:01;;;;;;;8.45;5.90;;;;;;;20.66;27.23;100870.78;5068221;28;20047;-77
2023/06/18 02:25:32;;;;;;;8.63;6.82;;;;;;;20.67;27.62;100875.28;5051268;28;20048;-79
2023/06/18 02:28:00;;;;;;;7.47;6.35;;;;;;;20.64;27.65;100867.34;5049682;28;20093;-77
2023/06/18 02:30:29;;;;;;;7.88;6.70;;;;;;;20.64;27.66;100868.19;5061969;28;20057;-77
2023/06/18 02:32:58;;;;;;;9.05;6.68;;;;;;;20.61;27.35;100862.19;5065833;28;20540;-77
2023/06/18 02:35:26;;;;;;;8.13;6.38;;;;;;;20.60;27.64;100866.91;5062966;28;20052;-76
2023/06/18 02:37:55;;;;;;;8.23;6.00;;;;;;;20.59;27.21;100865.16;5049713;28;20071;-77
2023/06/18 02:40:23;;;;;;;7.35;6.35;;;;;;;20.57;27.56;100860.81;5047494;28;20041;-77
2023/06/18 02:42:53;;;;;;;7.55;6.40;;;;;;;20.57;27.30;100866.38;5047420;28;20060;-78
2023/06/18 02:45:23;;;;;;;8.23;6.53;;;;;;;20.55;27.26;100862.94;5045325;28;20052;-77
2023/06/18 02:47:52;;;;;;;8.38;6.88;;;;;;;20.51;27.68;100865.28;5049503;28;20040;-77
2023/06/18 02:50:20;;;;;;;8.43;6.70;;;;;;;20.52;27.46;100855.00;5047119;28;20037;-77
2023/06/18 02:52:49;;;;;;;8.63;7.22;;;;;;;20.49;27.93;100855.41;5050137;28;20055;-75
2023/06/18 02:55:17;;;;;;;8.38;7.00;;;;;;;20.48;27.77;100853.69;5048904;28;20126;-77
2023/06/18 02:57:46;;;;;;;8.68;6.82;;;;;;;20.47;27.81;100854.72;5049749;28;20049;-78
2023/06/18 03:00:16;;;;;;;8.15;6.47;;;;;;;20.43;27.64;100854.28;5046727;28;20064;-77
2023/06/18 03:02:45;;;;;;;8.00;6.55;;;;;;;20.39;27.85;100856.59;5049665;28;20174;-76
2023/06/18 03:05:18;;;;;;;9.27;6.65;;;;;;;20.37;27.53;100852.28;5048965;28;20041;-76
2023/06/18 03:07:46;;;;;;;8.30;6.80;;;;;;;20.32;27.58;100850.13;5048547;28;20365;-76
2023/06/18 03:10:15;;;;;;;8.60;7.05;;;;;;;20.28;27.80;100848.78;5046735;28;20037;-76
2023/06/18 03:12:45;;;;;;;8.25;6.22;;;;;;;20.26;27.80;100850.06;5048979;28;20047;-76
2023/06/18 03:15:24;;;;;;;6.75;6.05;;;;;;;20.24;27.78;100855.81;5047572;28;20492;-77
2023/06/18 03:17:52;;;;;;;8.55;6.53;;;;;;;20.21;27.97;100855.31;5047450;28;20120;-77
2023/06/18 03:20:20;;;;;;;7.18;6.15;;;;;;;20.17;27.91;100862.34;5047105;28;20040;-77
2023/06/18 03:22:54;;;;;;;7.60;6.13;;;;;;;20.15;28.30;100861.69;5050546;28;20045;-77
2023/06/18 03:25:22;;;;;;;8.70;6.78;;;;;;;20.10;27.79;100865.06;5050237;28;20102;-77
2023/06/18 03:27:51;;;;;;;7.68;6.05;;;;;;;20.09;28.18;100870.81;5047384;28;20095;-78
2023/06/18 03:30:21;;;;;;;7.55;6.35;;;;;;;20.06;27.82;100874.84;5045933;28;20140;-76
2023/06/18 03:32:52;;;;;;;7.70;6.30;;;;;;;20.04;27.92;100874.16;5054890;28;20053;-77
2023/06/18 03:35:21;;;;;;;7.55;6.00;;;;;;;19.99;27.97;100874.75;5049922;28;20060;-78
2023/06/18 03:37:49;;;;;;;7.90;6.53;;;;;;;19.97;27.98;100873.22;5053015;28;20041;-77
2023/06/18 03:40:17;;;;;;;7.93;6.68;;;;;;;19.93;28.56;100872.78;5049902;28;20558;-76
2023/06/18 03:42:45;;;;;;;7.60;6.40;;;;;;;19.91;28.43;100865.69;5050455;28;20053;-76
2023/06/18 03:45:17;;;;;;;9.73;6.55;;;;;;;19.87;28.35;100867.94;5049381;28;20531;-77
2023/06/18 03:47:45;;;;;;;8.27;6.53;;;;;;;19.87;28.71;100875.44;5067073;28;20041;-77
2023/06/18 03:50:15;;;;;;;6.35;5.57;;;;;;;19.87;28.66;100875.44;5066124;28;20392;-76
2023/06/18 03:52:43;;;;;;;9.00;6.50;;;;;;;19.84;28.64;100873.06;5051016;28;20033;-77
2023/06/18 03:55:12;;;;;;;7.80;5.97;;;;;;;19.83;28.95;100876.88;5049098;28;20121;-76
2023/06/18 03:57:40;;;;;;;7.10;6.18;;;;;;;19.81;28.91;100877.06;5050369;28;20041;-77
2023/06/18 04:00:11;;;;;;;7.45;6.15;;;;;;;19.82;29.02;100883.47;5061909;28;20086;-77
2023/06/18 04:02:39;;;;;;;8.75;6.97;;;;;;;19.80;29.16;100885.59;5049106;28;20044;-77
2023/06/18 04:05:12;;;;;;;8.35;6.07;;;;;;;19.79;28.88;100895.84;5052961;28;20127;-77
2023/06/18 04:07:41;;;;;;;8.55;7.00;;;;;;;19.79;29.25;100901.38;5071697;28;20044;-77
2023/06/18 04:10:10;;;;;;;7.45;6.15;;;;;;;19.76;29.31;100895.38;5051655;28;20647;-76
2023/06/18 04:12:37;;;;;;;9.27;6.85;;;;;;;19.75;29.41;100888.09;5052629;28;20048;-77
2023/06/18 04:15:06;;;;;;;8.52;6.50;;;;;;;19.74;29.14;100900.25;5068884;28;20141;-76
2023/06/18 04:17:39;;;;;;;7.75;6.57;;;;;;;19.74;29.71;100900.25;5051266;28;20067;-77
2023/06/18 04:20:11;;;;;;;8.30;6.88;;;;;;;19.69;29.31;100898.06;5049338;28;20045;-76
2023/06/18 04:22:40;;;;;;;7.50;6.25;;;;;;;19.68;29.59;100898.25;5063589;28;20069;-76
2023/06/18 04:25:10;;;;;;;10.05;6.47;;;;;;;19.63;29.29;100905.25;5060426;28;20131;-77
2023/06/18 04:27:39;;;;;;;8.38;6.38;;;;;;;19.60;29.58;100907.56;5066594;28;20139;-76
2023/06/18 04:30:09;;;;;;;8.40;6.80;;;;;;;19.58;29.20;100912.44;5047756;28;20496;-75
2023/06/18 04:32:38;;;;;;;8.68;6.47;;;;;;;19.53;29.11;100901.91;5048676;28;20084;-76
2023/06/18 04:35:07;;;;;;;8.93;6.80;;;;;;;19.52;29.12;100910.44;5053683;28;20124;-76
2023/06/18 04:37:36;;;;;;;8.55;6.65;;;;;;;19.48;29.17;100904.38;5055525;28;20041;-76
2023/06/18 04:40:07;;;;;;;7.90;6.38;;;;;;;19.47;29.88;100902.66;5055035;28;20043;-76
2023/06/18 04:42:35;;;;;;;8.45;6.18;;;;;;;19.44;29.30;100902.19;5054741;28;20055;-76
2023/06/18 04:45:05;;;;;;;8.40;6.88;;;;;;;19.44;29.67;100907.75;5055156;28;20039;-77
2023/06/18 04:47:33;;;;;;;8.75;6.80;;;;;;;19.42;29.32;100893.19;5068545;28;20566;-76
2023/06/18 04:50:02;;;;;;;9.02;6.32;;;;;;;19.43;29.34;100897.69;5048566;28;20029;-76
2023/06/18 04:52:32;;;;;;;8.10;6.53;;;;;;;19.44;29.26;100907.75;5047593;28;20052;-76
2023/06/18 04:55:00;;;;;;;7.50;6.20;;;;;;;19.46;29.32;100902.88;5049340;28;20057;-76
2023/06/18 04:57:29;;;;;;;7.90;6.40;;;;;;;19.51;29.88;100904.00;5047590;28;20057;-76
2023/06/18 04:59:58;;;;;;;8.20;6.32;;;;;;;19.51;29.48;100906.78;5048865;28;20049;-75
2023/06/18 05:02:26;;;;;;;8.73;6.40;;;;;;;19.55;29.42;100901.69;5064418;28;20049;-76
2023/06/18 05:04:54;;;;;;;8.63;6.18;;;;;;;19.58;29.68;100899.41;5047565;28;20075;-76
2023/06/18 05:07:22;;;;;;;7.38;5.95;;;;;;;19.67;29.94;100900.16;5051104;28;20051;-75
2023/06/18 05:09:50;;;;;;;7.60;6.10;;;;;;;19.74;29.49;100897.47;5048295;28;20049;-76
2023/06/18 05:12:18;;;;;;;8.52;5.90;;;;;;;19.81;29.95;100887.31;5043881;28;20053;-76
2023/06/18 05:14:47;;;;;;;8.30;6.07;;;;;;;19.91;29.82;100896.25;5047711;28;20045;-76
2023/06/18 05:17:15;;;;;;;8.32;6.35;;;;;;;19.97;29.38;100885.19;5050113;28;20356;-76
2023/06/18 05:19:43;;;;;;;7.13;5.80;;;;;;;20.07;29.27;100892.38;5049280;28;20048;-76
2023/06/18 05:22:12;;;;;;;7.95;5.93;;;;;;;20.16;28.91;100897.63;5049030;28;20053;-76
2023/06/18 05:24:40;;;;;;;8.05;6.03;;;;;;;20.24;28.62;100889.16;5050349;28;20628;-75
2023/06/18 05:27:08;;;;;;;8.15;5.82;;;;;;;20.31;28.56;100894.78;5062347;28;20064;-76
2023/06/18 05:29:38;;;;;;;8.15;5.82;;;;;;;20.39;28.49;100889.94;5044616;28;20048;-76
2023/06/18 05:32:09;;;;;;;7.25;5.50;;;;;;;20.50;28.64;100894.13;5045672;28;20099;-76
2023/06/18 05:34:39;;;;;;;8.30;5.97;;;;;;;20.55;28.86;100894.38;5048908;28;20073;-76
2023/06/18 05:37:07;;;;;;;8.32;5.95;;;;;;;20.64;28.59;100901.56;5048201;28;20037;-76
2023/06/18 05:39:37;;;;;;;6.47;5.32;;;;;;;20.72;28.34;100908.91;5044484;28;20041;-76
2023/06/18 05:42:08;;;;;;;7.03;5.63;;;;;;;20.81;28.10;100904.94;5047448;28;20045;-75
2023/06/18 05:44:36;;;;;;;6.60;5.47;;;;;;;20.87;27.79;100912.47;5048332;28;20041;-76
2023/06/18 05:47:04;;;;;;;6.82;5.57;;;;;;;20.94;27.36;100907.84;5046300;28;20037;-75
2023/06/18 05:49:35;;;;;;;6.60;5.43;;;;;;;21.06;27.12;100916.47;5064066;28;20139;-75
2023/06/18 05:52:03;;;;;;;8.15;5.53;;;;;;;21.09;27.01;100916.97;5047820;28;20056;-75
2023/06/18 05:54:32;;;;;;;7.15;5.28;;;;;;;21.18;27.18;100917.66;5048826;28;20102;-76
2023/06/18 05:57:00;;;;;;;7.38;5.53;;;;;;;21.24;27.07;100911.28;5048038;28;20132;-75
2023/06/18 05:59:28;;;;;;;6.43;5.35;;;;;;;21.32;27.00;100915.84;5045445;28;20067;-75
2023/06/18 06:02:05;;;;;;;7.15;6.05;;;;;;;21.40;26.88;100910.13;5046911;28;20036;-75
2023/06/18 06:04:35;;;;;;;6.72;5.63;;;;;;;21.49;27.25;100909.78;5048414;28;20528;-75
2023/06/18 06:07:03;;;;;;;6.50;5.40;;;;;;;21.55;27.22;100910.84;5045359;28;20076;-75
2023/06/18 06:09:31;;;;;;;6.80;5.30;;;;;;;21.63;26.97;100907.03;5048130;28;20049;-75
2023/06/18 06:11:59;;;;;;;7.20;5.78;;;;;;;21.71;26.99;100910.53;5045631;28;20124;-75
2023/06/18 06:14:26;;;;;;;6.57;5.55;;;;;;;21.80;27.14;100914.00;5046663;28;20041;-75
2023/06/18 06:16:57;;;;;;;7.13;5.65;;;;;;;21.87;27.16;100910.16;5045423;28;20045;-75
2023/06/18 06:19:26;;;;;;;7.97;5.82;;;;;;;21.96;27.08;100913.69;5047172;28;20091;-75
2023/06/18 06:21:55;;;;;;;6.47;4.93;;;;;;;22.11;26.74;100916.28;5047709;28;20053;-75
2023/06/18 06:24:24;;;;;;;6.45;5.38;;;;;;;22.21;26.45;100917.63;5046345;28;20086;-75
2023/06/18 06:26:52;;;;;;;7.03;5.15;;;;;;;22.33;26.77;100915.09;5047941;28;20110;-75
2023/06/18 06:29:20;;;;;;;6.32;5.40;;;;;;;22.44;26.12;100908.88;5048855;28;20049;-76
2023/06/18 06:31:48;;;;;;;6.85;5.22;;;;;;;22.57;26.16;100914.53;5045837;28;20490;-76
2023/06/18 06:34:17;;;;;;;5.90;4.95;;;;;;;22.69;26.00;100905.53;5064020;28;20056;-76
2023/06/18 06:36:45;;;;;;;6.57;5.32;;;;;;;22.79;25.56;100909.63;5043991;28;20111;-76
2023/06/18 06:39:18;;;;;;;6.53;5.13;;;;;;;22.89;25.42;100910.06;5043503;28;20048;-76
2023/06/18 06:41:46;;;;;;;6.00;4.90;;;;;;;22.94;25.85;100915.00;5045685;28;20321;-76
2023/06/18 06:44:15;;;;;;;6.35;5.10;;;;;;;23.02;25.18;100912.84;5043929;28;20608;-77
2023/06/18 06:46:51;;;;;;;5.57;4.97;;;;;;;23.09;25.07;100921.22;5043509;28;20603;-76
2023/06/18 06:49:40;;;;;;;6.97;4.90;;;;;;;23.16;25.22;100924.06;5039914;28;20057;-76
2023/06/18 06:52:26;;;;;;;6.25;4.88;;;;;;;23.21;25.18;100916.75;5047771;28;20527;-76
2023/06/18 06:54:56;;;;;;;5.93;5.00;;;;;;;23.32;24.66;100921.69;5045909;28;20175;-76
2023/06/18 06:57:24;;;;;;;7.45;5.05;;;;;;;23.37;24.98;100918.22;5042525;28;20059;-76
2023/06/18 06:59:52;;;;;;;6.20;5.10;;;;;;;23.46;24.84;100919.72;5042148;28;20053;-76
2023/06/18 07:02:20;;;;;;;6.82;5.47;;;;;;;23.55;24.47;100918.41;5044920;28;20387;-76
2023/06/18 07:04:48;;;;;;;6.15;5.13;;;;;;;23.66;24.54;100928.06;5057821;28;20037;-77
2023/06/18 07:07:16;;;;;;;5.82;4.97;;;;;;;23.74;24.42;100925.03;5043991;28;20111;-76
2023/06/18 07:09:44;;;;;;;5.38;4.82;;;;;;;23.84;24.47;100924.56;5046306;28;20584;-76
2023/06/18 07:12:13;;;;;;;5.85;5.05;;;;;;;23.97;24.28;100928.19;5043443;28;20465;-76
2023/06/18 07:14:41;;;;;;;6.93;4.95;;;;;;;24.07;24.14;100927.72;5045185;28;20041;-77
2023/06/18 07:17:09;;;;;;;5.30;4.63;;;;;;;24.17;23.76;100922.50;5041826;28;20037;-76
2023/06/18 07:19:37;;;;;;;6.07;5.05;;;;;;;24.29;23.85;100923.53;5043415;28;20552;-77
2023/06/18 07:22:04;;;;;;;5.97;5.03;;;;;;;24.40;23.66;100917.22;5046887;28;20048;-77
2023/06/18 07:24:32;;;;;;;6.15;4.72;;;;;;;24.51;23.41;100910.06;5045818;28;20432;-78
2023/06/18 07:27:00;;;;;;;7.03;5.30;;;;;;;24.63;23.29;100910.22;5062371;28;20448;-77
2023/06/18 07:29:31;;;;;;;5.60;4.65;;;;;;;24.75;23.23;100914.00;5044970;28;20099;-77
2023/06/18 07:31:58;;;;;;;5.90;4.65;;;;;;;24.85;23.28;100905.94;5044649;28;20080;-77
2023/06/18 07:34:26;;;;;;;6.43;5.22;;;;;;;24.95;22.89;100911.94;5041450;28;20068;-77
2023/06/18 07:36:54;;;;;;;6.68;5.40;;;;;;;25.04;22.58;100912.50;5045052;28;20045;-77
2023/06/18 07:39:22;;;;;;;6.50;5.15;;;;;;;25.12;22.54;100915.03;5045099;28;20150;-77
2023/06/18 07:41:49;;;;;;;6.43;5.10;;;;;;;25.21;22.26;100917.31;5042288;28;20059;-77
2023/06/18 07:44:17;;;;;;;7.65;5.72;;;;;;;25.29;22.18;100920.91;5046412;28;20043;-77
2023/06/18 07:46:47;;;;;;;6.25;4.93;;;;;;;25.37;22.12;100921.47;5044117;28;20049;-77
2023/06/18 07:49:16;;;;;;;8.05;4.80;;;;;;;25.41;22.17;100919.91;5042592;28;20052;-77
2023/06/18 07:51:44;;;;;;;6.15;5.10;;;;;;;25.46;21.82;100916.44;5041891;28;20716;-78
2023/06/18 07:54:12;;;;;;;6.03;4.80;;;;;;;25.52;21.80;100919.19;5059871;28;20045;-77
2023/06/18 07:56:40;;;;;;;6.07;5.07;;;;;;;25.59;22.12;100913.50;5043160;28;20041;-76
2023/06/18 07:59:08;;;;;;;5.38;4.75;;;;;;;25.66;21.45;100907.81;5042735;28;20454;-77
2023/06/18 08:01:36;;;;;;;6.75;5.05;;;;;;;25.71;21.80;100910.78;5043838;28;20495;-77
2023/06/18 08:04:05;;;;;;;6.82;5.10;;;;;;;25.80;21.67;100910.22;5045876;28;20041;-77
2023/06/18 08:06:33;;;;;;;6.43;4.72;;;;;;;25.87;21.79;100907.38;5043200;28;20109;-77
2023/06/18 08:09:01;;;;;;;6.25;4.97;;;;;;;25.95;21.38;100904.25;5045233;28;20065;-77
2023/06/18 08:11:28;;;;;;;6.75;4.72;;;;;;;26.02;21.30;100905.88;5050208;28;20049;-77
2023/06/18 08:13:56;;;;;;;7.05;4.95;;;;;;;26.13;21.16;100901.47;5046899;28;20429;-77
2023/06/18 08:16:25;;;;;;;5.60;4.50;;;;;;;26.22;21.43;100902.81;5044311;28;20111;-77
2023/06/18 08:18:53;;;;;;;6.72;5.10;;;;;;;26.32;20.86;100899.44;5046600;28;20045;-77
2023/06/18 08:21:22;;;;;;;5.72;4.80;;;;;;;26.45;20.68;100904.03;5045600;28;20091;-76
2023/06/18 08:23:50;;;;;;;6.47;4.88;;;;;;;26.53;20.64;100893.31;5045855;28;20112;-76
2023/06/18 08:26:19;;;;;;;6.22;4.75;;;;;;;26.64;20.59;100894.47;5060485;28;20040;-77
2023/06/18 08:28:47;;;;;;;6.00;4.70;;;;;;;26.75;20.57;100894.50;5060610;28;20045;-77
2023/06/18 08:31:15;;;;;;;5.18;4.43;;;;;;;26.88;20.66;100898.16;5055692;28;20227;-77
2023/06/18 08:33:43;;;;;;;5.43;4.60;;;;;;;26.99;20.34;100897.34;5045815;28;20049;-77
2023/06/18 08:36:11;;;;;;;5.30;4.45;;;;;;;27.11;20.75;100901.03;5045681;28;20159;-77
2023/06/18 08:38:41;;;;;;;5.40;4.78;;;;;;;27.27;20.80;100894.72;5044291;28;20073;-77
2023/06/18 08:41:11;;;;;;;5.55;4.57;;;;;;;27.37;20.50;100902.50;5041848;28;20045;-76
2023/06/18 08:43:39;;;;;;;6.55;4.60;;;;;;;27.51;20.07;100895.56;5045679;28;20032;-77
2023/06/18 08:46:10;;;;;;;5.65;4.50;;;;;;;27.64;19.37;100898.09;5044669;28;20089;-77
2023/06/18 08:48:44;;;;;;;5.50;4.65;;;;;;;27.73;19.67;100893.84;5049960;28;20431;-78
2023/06/18 08:51:12;;;;;;;5.10;4.30;;;;;;;27.82;19.50;100902.75;5069833;28;20471;-76
2023/06/18 08:53:45;;;;;;;5.07;4.45;;;;;;;27.95;19.42;100898.78;5062117;28;20074;-77
2023/06/18 08:56:15;;;;;;;6.00;4.90;;;;;;;28.03;19.21;100893.63;5054671;28;20080;-77
2023/06/18 08:58:49;;;;;;;5.70;4.47;;;;;;;28.12;18.91;100892.16;5050604;28;20516;-76
2023/06/18 09:01:18;;;;;;;6.60;4.57;;;;;;;28.20;18.86;100893.69;5045713;28;20052;-76
2023/06/18 09:03:47;;;;;;;5.53;4.68;;;;;;;28.28;18.82;100884.03;5052968;28;20405;-78
2023/06/18 09:06:15;;;;;;;5.78;4.63;;;;;;;28.34;18.32;100883.91;5044590;28;20053;-78
2023/06/18 09:08:44;;;;;;;5.75;4.70;;;;;;;28.43;18.50;100888.03;5069461;28;20047;-77
2023/06/18 09:11:14;;;;;;;5.68;4.55;;;;;;;28.49;18.57;100888.97;5047695;28;20049;-78
2023/06/18 09:13:43;;;;;;;5.07;4.50;;;;;;;28.56;18.29;100889.66;5051278;28;20047;-77
2023/06/18 09:16:11;;;;;;;4.95;4.00;;;;;;;28.60;18.06;100888.88;5046636;28;20127;-77
2023/06/18 09:18:40;;;;;;;5.82;4.50;;;;;;;28.67;18.39;100890.72;5064743;28;21181;-80
2023/06/18 09:21:07;;;;;;;7.20;4.90;;;;;;;28.70;18.14;100888.22;5051555;28;20100;-78
2023/06/18 09:23:35;;;;;;;4.95;4.43;;;;;;;28.74;17.81;100891.44;5054308;28;20040;-77
2023/06/18 09:26:04;;;;;;;5.55;4.30;;;;;;;28.80;17.39;100896.03;5047398;28;20500;-77
2023/06/18 09:28:32;;;;;;;5.00;4.40;;;;;;;28.80;17.91;100898.84;5046719;28;20053;-78
2023/06/18 09:31:03;;;;;;;4.85;4.13;;;;;;;28.84;17.59;100894.44;5044408;28;20045;-77
2023/06/18 09:33:32;;;;;;;5.93;5.10;;;;;;;28.86;17.65;100895.88;5051108;28;20075;-78
2023/06/18 09:36:02;;;;;;;5.55;4.15;;;;;;;28.89;17.75;100900.16;5049233;28;20048;-78
2023/06/18 09:38:35;;;;;;;5.90;4.60;;;;;;;28.91;17.34;100895.97;5071241;28;20056;-78
2023/06/18 09:41:10;;;;;;;5.40;4.47;;;;;;;28.91;17.47;100890.34;5055239;28;20152;-78
2023/06/18 09:43:39;;;;;;;6.10;4.50;;;;;;;28.92;17.63;100894.88;5053342;28;20041;-77
2023/06/18 09:46:09;;;;;;;6.15;4.82;;;;;;;28.92;18.01;100888.38;5052794;28;20043;-78
2023/06/18 09:48:41;;;;;;;5.88;4.50;;;;;;;28.92;17.88;100882.75;5055495;28;20052;-78
2023/06/18 09:51:10;;;;;;;6.05;4.78;;;;;;;28.89;17.68;100880.44;5070390;28;20044;-79
2023/06/18 09:53:39;;;;;;;5.40;4.43;;;;;;;28.91;18.11;100890.34;5053042;28;20033;-81
2023/06/18 09:56:15;;;;;;;5.55;4.60;;;;;;;28.94;18.07;100881.38;5052277;28;20053;-79
2023/06/18 09:58:47;;;;;;;5.00;4.30;;;;;;;28.95;18.44;100885.88;5050758;28;20045;-79
2023/06/18 10:01:18;;;;;;;6.40;4.85;;;;;;;28.98;18.09;100888.22;5054151;28;20123;-79
2023/06/18 10:03:47;;;;;;;6.13;4.70;;;;;;;29.04;18.31;100880.69;5055088;28;20465;-80
2023/06/18 10:06:18;;;;;;;5.43;4.50;;;;;;;29.12;17.80;100885.88;5055808;28;20140;-80
2023/06/18 10:08:50;;;;;;;5.78;4.63;;;;;;;29.19;17.92;100883.75;5057649;28;20047;-80
2023/06/18 10:11:22;;;;;;;5.75;4.50;;;;;;;29.26;17.64;100875.16;5055841;28;20045;-79
2023/06/18 10:13:51;;;;;;;5.45;4.40;;;;;;;29.33;17.84;100879.50;5058273;28;20040;-80
2023/06/18 10:16:21;;;;;;;5.15;4.60;;;;;;;29.43;17.57;100884.41;5074490;28;20080;-79
2023/06/18 10:18:58;;;;;;;5.57;4.25;;;;;;;29.53;17.52;100872.44;5055642;28;20053;-79
2023/06/18 10:21:28;;;;;;;5.55;4.80;;;;;;;29.56;17.21;100860.66;5055821;28;20083;-79
2023/06/18 10:24:02;;;;;;;5.45;4.57;;;;;;;29.65;17.16;100870.38;5077669;28;20136;-81
2023/06/18 10:26:31;;;;;;;5.18;4.47;;;;;;;29.73;16.81;100853.88;5071542;28;20044;-80
2023/06/18 10:29:00;;;;;;;5.47;4.20;;;;;;;29.78;16.66;100853.09;5055686;28;20404;-81
2023/06/18 10:31:28;;;;;;;5.90;4.22;;;;;;;29.83;16.96;100852.31;5055488;28;20059;-80
2023/06/18 10:33:57;;;;;;;6.60;4.22;;;;;;;29.89;16.36;100854.94;5057659;28;20059;-80
2023/06/18 10:36:26;;;;;;;5.68;4.60;;;;;;;29.91;17.10;100849.88;5057339;28;20052;-79
2023/06/18 10:38:54;;;;;;;5.88;4.22;;;;;;;29.95;16.54;100847.38;5059890;28;20041;-78
2023/06/18 10:41:22;;;;;;;5.65;4.30;;;;;;;29.99;16.71;100845.75;5069608;28;20053;-77
2023/06/18 10:43:53;;;;;;;5.57;4.22;;;;;;;30.03;16.05;100841.25;5051081;28;20060;-77
2023/06/18 10:46:23;;;;;;;4.88;4.28;;;;;;;30.03;15.72;100839.28;5049186;28;20072;-78
2023/06/18 10:49:14;;;;;;;6.03;4.28;;;;;;;30.05;16.35;100845.53;5053032;28;20116;-78
2023/06/18 10:51:51;;;;;;;5.05;4.00;;;;;;;30.02;16.20;100837.59;5049720;28;20083;-77
2023/06/18 10:54:21;;;;;;;4.60;4.00;;;;;;;30.05;15.96;100842.72;5065556;28;20471;-77
2023/06/18 10:56:54;;;;;;;5.28;4.10;;;;;;;30.08;16.02;100832.88;5048139;28;20056;-78
2023/06/18 10:59:43;;;;;;;4.65;3.92;;;;;;;30.04;15.86;100835.34;5050359;28;20041;-77
2023/06/18 11:02:12;;;;;;;5.88;3.95;;;;;;;30.04;16.45;100835.34;5046777;28;20051;-77
2023/06/18 11:04:41;;;;;;;5.20;4.03;;;;;;;30.05;16.14;100828.59;5048791;28;20087;-77
2023/06/18 11:07:13;;;;;;;5.30;3.88;;;;;;;30.08;15.98;100828.09;5050282;28;20412;-77
2023/06/18 11:10:01;;;;;;;5.15;4.18;;;;;;;30.05;15.72;100834.25;5055199;28;20041;-77
2023/06/18 11:12:30;;;;;;;4.63;3.65;;;;;;;30.05;15.99;100831.41;5049548;28;20049;-78
2023/06/18 11:15:11;;;;;;;5.00;3.85;;;;;;;30.09;16.10;100824.09;5066665;28;20041;-78
2023/06/18 11:17:41;;;;;;;4.70;4.00;;;;;;;30.09;16.17;100826.94;5050817;28;20157;-78
2023/06/18 11:20:10;;;;;;;5.63;4.00;;;;;;;30.12;15.97;100822.75;5041177;28;20044;-77
2023/06/18 11:22:40;;;;;;;4.88;3.90;;;;;;;30.14;15.82;100820.50;5064280;28;20073;-77
2023/06/18 11:25:10;;;;;;;5.25;3.95;;;;;;;30.16;15.63;100814.59;5047017;28;20047;-77
2023/06/18 11:27:40;;;;;;;5.00;3.83;;;;;;;30.18;15.35;100813.19;5050260;28;20051;-77
2023/06/18 11:30:12;;;;;;;4.93;3.88;;;;;;;30.17;15.21;100813.50;5051728;28;20044;-78
2023/06/18 11:32:41;;;;;;;4.82;4.00;;;;;;;30.15;14.96;100801.59;5066191;28;20037;-77
2023/06/18 11:35:10;;;;;;;4.95;3.75;;;;;;;30.17;14.99;100796.56;5051324;28;20036;-78